createdAt,value
2022-09-12T00:04:07.641Z,100276.60
2022-09-12T00:09:13.815Z,100278.82
2022-09-12T00:14:19.057Z,100278.43
2022-09-12T00:19:22.487Z,100281.91
2022-09-12T00:24:25.790Z,100280.59
2022-09-12T00:29:29.065Z,100278.52
2022-09-12T00:34:32.288Z,100278.28
2022-09-12T00:39:35.544Z,100285.70
2022-09-12T00:44:38.706Z,100284.86
2022-09-12T00:49:50.337Z,100292.77
2022-09-12T00:55:00.414Z,100297.41
2022-09-12T01:00:18.006Z,100292.92
2022-09-12T01:05:23.087Z,100293.09
2022-09-12T01:10:26.314Z,100290.21
2022-09-12T01:15:29.499Z,100292.89
2022-09-12T01:21:28.613Z,100294.80
2022-09-12T01:27:10.231Z,100302.41
2022-09-12T01:32:22.590Z,100301.09
2022-09-12T01:37:40.550Z,100299.33
2022-09-12T01:43:06.378Z,100298.17
2022-09-12T01:48:20.672Z,100299.97
2022-09-12T01:53:28.854Z,100297.49
2022-09-12T01:58:49.642Z,100297.90
2022-09-12T02:04:24.773Z,100299.27
2022-09-12T02:09:42.318Z,100306.42
2022-09-12T02:14:51.161Z,100303.92
2022-09-12T02:20:07.004Z,100298.60
2022-09-12T02:25:12.246Z,100297.41
2022-09-12T02:30:17.381Z,100296.42
2022-09-12T02:35:34.127Z,100298.98
2022-09-12T02:40:38.076Z,100299.09
2022-09-12T02:45:41.576Z,100298.64
2022-09-12T02:50:45.819Z,100302.33
2022-09-12T02:55:55.642Z,100309.10
2022-09-12T03:01:40.680Z,100311.07
2022-09-12T03:07:02.357Z,100312.81
2022-09-12T03:12:06.638Z,100317.27
2022-09-12T03:17:19.049Z,100313.81
2022-09-12T03:22:33.061Z,100310.75
2022-09-12T03:27:41.428Z,100307.73
2022-09-12T03:32:52.592Z,100295.12
2022-09-12T03:37:55.896Z,100293.94
2022-09-12T03:42:59.766Z,100293.90
2022-09-12T03:48:04.140Z,100296.40
2022-09-12T03:53:12.996Z,100298.33
2022-09-12T03:58:20.052Z,100305.19
2022-09-12T04:03:23.916Z,100306.38
2022-09-12T04:08:27.189Z,100311.55
2022-09-12T04:13:30.493Z,100314.41
2022-09-12T04:18:34.014Z,100320.11
2022-09-12T04:23:37.351Z,100320.83
2022-09-12T04:28:41.541Z,100322.27
2022-09-12T04:33:45.667Z,100322.29
2022-09-12T04:38:49.239Z,100320.77
2022-09-12T04:43:58.497Z,100316.90
2022-09-12T04:49:01.705Z,100318.39
2022-09-12T04:54:09.292Z,100325.49
2022-09-12T04:59:14.529Z,100327.66
2022-09-12T05:04:19.194Z,100328.48
2022-09-12T05:09:22.963Z,100330.04
2022-09-12T05:14:26.695Z,100335.84
2022-09-12T05:19:30.952Z,100341.05
2022-09-12T05:24:35.899Z,100344.61
2022-09-12T05:29:39.152Z,100349.09
2022-09-12T05:34:42.386Z,100351.69
2022-09-12T05:39:46.257Z,100353.97
2022-09-12T05:44:49.558Z,100360.27
2022-09-12T05:49:53.731Z,100369.02
2022-09-12T05:54:58.736Z,100371.91
2022-09-12T06:00:05.993Z,100369.87
2022-09-12T06:05:16.066Z,100373.12
2022-09-12T06:10:19.364Z,100370.02
2022-09-12T06:15:23.091Z,100371.91
2022-09-12T06:20:26.494Z,100375.71
2022-09-12T06:25:30.256Z,100377.17
2022-09-12T06:30:33.506Z,100370.55
2022-09-12T06:35:38.495Z,100371.59
2022-09-12T06:40:44.776Z,100371.37
2022-09-12T06:45:50.116Z,100371.90
2022-09-12T06:51:01.863Z,100368.71
2022-09-12T06:56:10.410Z,100365.52
2022-09-12T07:01:16.312Z,100364.31
2022-09-12T07:06:21.375Z,100361.89
2022-09-12T07:11:27.812Z,100364.66
2022-09-12T07:16:35.470Z,100369.19
2022-09-12T07:21:40.787Z,100368.55
2022-09-12T07:26:44.362Z,100372.76
2022-09-12T07:31:47.937Z,100371.70
2022-09-12T07:36:51.086Z,100383.08
2022-09-12T07:41:55.083Z,100388.82
2022-09-12T07:46:58.700Z,100397.84
2022-09-12T07:52:02.822Z,100399.39
2022-09-12T07:57:06.235Z,100403.33
2022-09-12T08:02:17.452Z,100399.38
2022-09-12T08:07:21.462Z,100401.63
2022-09-12T08:12:24.679Z,100403.89
2022-09-12T08:17:27.977Z,100409.86
2022-09-12T08:22:34.148Z,100409.27
2022-09-12T08:27:39.301Z,100404.70
2022-09-12T08:32:42.460Z,100402.70
2022-09-12T08:37:46.151Z,100403.65
2022-09-12T08:42:49.258Z,100402.52
2022-09-12T08:47:52.572Z,100407.12
2022-09-12T08:53:13.507Z,100403.60
2022-09-12T08:58:20.425Z,100401.63
2022-09-12T09:03:45.504Z,100406.46
2022-09-12T09:09:26.390Z,100408.61
2022-09-12T09:14:56.597Z,100414.45
2022-09-12T09:20:16.845Z,100412.09
2022-09-12T09:25:26.442Z,100416.45
2022-09-12T09:30:31.112Z,100414.48
2022-09-12T09:35:45.286Z,100413.14
2022-09-12T09:41:00.585Z,100412.98
2022-09-12T09:46:04.443Z,100408.11
2022-09-12T09:51:09.813Z,100402.91
2022-09-12T09:56:34.226Z,100400.06
2022-09-12T10:01:49.438Z,100400.41
2022-09-12T10:07:01.564Z,100400.14
2022-09-12T10:12:29.726Z,100406.65
2022-09-12T10:17:43.053Z,100400.13
2022-09-12T10:22:48.385Z,100396.20
2022-09-12T10:28:01.079Z,100392.55
2022-09-12T10:33:09.308Z,100396.36
2022-09-12T10:38:26.126Z,100396.70
2022-09-12T10:43:37.946Z,100390.54
2022-09-12T10:48:43.390Z,100389.02
2022-09-12T10:53:47.157Z,100392.92
2022-09-12T10:59:02.915Z,100395.21
2022-09-12T11:04:28.894Z,100387.20
2022-09-12T11:09:47.565Z,100388.27
2022-09-12T11:15:04.539Z,100389.55
2022-09-12T11:20:26.599Z,100386.73
2022-09-12T11:25:30.330Z,100383.17
2022-09-12T11:31:07.411Z,100385.42
2022-09-12T11:36:43.832Z,100380.62
2022-09-12T11:41:57.396Z,100378.75
2022-09-12T11:47:01.673Z,100376.54
2022-09-12T11:52:18.399Z,100370.59
2022-09-12T11:57:46.210Z,100372.07
2022-09-12T12:03:12.712Z,100373.46
2022-09-12T12:08:16.624Z,100372.77
2022-09-12T12:13:34.400Z,100371.65
2022-09-12T12:18:38.926Z,100365.77
2022-09-12T12:24:10.230Z,100366.45
2022-09-12T12:29:16.673Z,100361.36
2022-09-12T12:34:27.527Z,100356.58
2022-09-12T12:39:33.757Z,100351.10
2022-09-12T12:44:47.935Z,100352.59
2022-09-12T12:49:53.280Z,100355.98
2022-09-12T12:55:02.279Z,100355.04
2022-09-12T13:00:33.066Z,100354.44
2022-09-12T13:05:55.405Z,100356.26
2022-09-12T13:11:08.853Z,100352.23
2022-09-12T13:16:31.428Z,100353.13
2022-09-12T13:21:38.479Z,100352.69
2022-09-12T13:26:44.985Z,100350.56
2022-09-12T13:31:59.278Z,100345.81
2022-09-12T13:37:11.702Z,100337.62
2022-09-12T13:42:41.448Z,100336.88
2022-09-12T13:47:58.701Z,100326.77
2022-09-12T13:53:04.648Z,100328.63
2022-09-12T13:58:27.905Z,100326.15
2022-09-12T14:03:58.046Z,100325.48
2022-09-12T14:09:34.705Z,100316.98
2022-09-12T14:14:44.224Z,100316.56
2022-09-12T14:19:55.895Z,100318.44
2022-09-12T14:24:59.839Z,100320.68
2022-09-12T14:30:15.284Z,100316.31
2022-09-12T14:35:30.188Z,100311.61
2022-09-12T14:40:44.627Z,100311.86
2022-09-12T14:46:09.180Z,100311.48
2022-09-12T14:51:34.937Z,100313.40
2022-09-12T14:57:01.960Z,100313.36
2022-09-12T15:02:31.599Z,100305.11
2022-09-12T15:07:36.751Z,100310.33
2022-09-12T15:12:40.297Z,100309.91
2022-09-12T15:17:43.893Z,100304.55
2022-09-12T15:22:50.628Z,100304.02
2022-09-12T15:27:58.501Z,100305.70
2022-09-12T15:33:04.835Z,100306.08
2022-09-12T15:38:13.640Z,100311.06
2022-09-12T15:43:21.436Z,100307.92
2022-09-12T15:48:32.119Z,100308.26
2022-09-12T15:53:35.621Z,100306.39
2022-09-12T15:58:54.609Z,100308.02
2022-09-12T16:04:03.323Z,100310.43
2022-09-12T16:09:16.679Z,100306.75
2022-09-12T16:14:28.712Z,100298.14
2022-09-12T16:19:32.516Z,100297.48
2022-09-12T16:24:38.354Z,100295.20
2022-09-12T16:29:41.914Z,100294.94
2022-09-12T16:34:46.636Z,100297.19
2022-09-12T16:39:50.374Z,100294.62
2022-09-12T16:44:57.896Z,100290.44
2022-09-12T16:50:02.119Z,100290.48
2022-09-12T16:55:16.504Z,100287.20
2022-09-12T17:00:31.543Z,100283.84
2022-09-12T17:05:54.965Z,100274.87
2022-09-12T17:11:05.852Z,100275.39
2022-09-12T17:16:35.293Z,100281.14
2022-09-12T17:21:41.119Z,100281.16
2022-09-12T17:26:47.455Z,100280.84
2022-09-12T17:32:02.550Z,100285.21
2022-09-12T17:37:11.977Z,100289.15
2022-09-12T17:42:30.131Z,100295.45
2022-09-12T17:47:34.941Z,100298.91
2022-09-12T17:52:39.989Z,100298.34
2022-09-12T17:58:03.767Z,100295.98
2022-09-12T18:03:11.361Z,100296.10
2022-09-12T18:08:23.695Z,100305.61
2022-09-12T18:13:42.364Z,100308.22
2022-09-12T18:19:06.974Z,100309.11
2022-09-12T18:24:11.827Z,100313.70
2022-09-12T18:29:17.815Z,100312.73
2022-09-12T18:34:28.872Z,100313.27
2022-09-12T18:39:37.883Z,100311.61
2022-09-12T18:44:55.262Z,100310.03
2022-09-12T18:50:08.754Z,100309.42
2022-09-12T18:55:17.776Z,100310.48
2022-09-12T19:00:48.851Z,100306.97
2022-09-12T19:06:02.176Z,100306.99
2022-09-12T19:11:23.289Z,100310.67
2022-09-12T19:16:56.396Z,100309.11
2022-09-12T19:22:08.014Z,100302.45
2022-09-12T19:27:20.879Z,100300.17
2022-09-12T19:32:30.389Z,100297.27
2022-09-12T19:37:37.164Z,100295.95
2022-09-12T19:42:40.660Z,100291.67
2022-09-12T19:47:45.499Z,100287.59
2022-09-12T19:52:49.048Z,100286.64
2022-09-12T19:57:52.927Z,100282.91
2022-09-12T20:02:56.120Z,100279.27
2022-09-12T20:07:59.900Z,100281.50
2022-09-12T20:13:06.660Z,100277.20
2022-09-12T20:18:28.972Z,100274.78
2022-09-12T20:23:41.505Z,100271.23
2022-09-12T20:28:46.994Z,100270.94
2022-09-12T20:34:24.330Z,100270.15
2022-09-12T20:39:38.283Z,100274.84
2022-09-12T20:44:52.481Z,100264.88
2022-09-12T20:50:05.710Z,100262.30
2022-09-12T20:55:16.095Z,100259.23
2022-09-12T21:00:26.857Z,100256.77
2022-09-12T21:05:44.758Z,100256.04
2022-09-12T21:10:48.755Z,100250.83
2022-09-12T21:16:20.651Z,100253.32
2022-09-12T21:21:30.420Z,100263.84
2022-09-12T21:26:39.281Z,100263.77
2022-09-12T21:31:45.774Z,100265.93
2022-09-12T21:36:53.974Z,100263.30
2022-09-12T21:42:00.180Z,100261.41
2022-09-12T21:47:25.821Z,100261.89
2022-09-12T21:52:33.012Z,100258.94
2022-09-12T21:57:37.718Z,100254.58
2022-09-12T22:02:43.019Z,100253.03
2022-09-12T22:07:50.881Z,100251.58
2022-09-12T22:13:17.084Z,100244.98
2022-09-12T22:18:49.167Z,100246.10
2022-09-12T22:24:13.762Z,100247.15
2022-09-12T22:29:17.630Z,100248.45
2022-09-12T22:34:28.402Z,100248.85
2022-09-12T22:39:36.172Z,100245.87
2022-09-12T22:44:39.486Z,100238.27
2022-09-12T22:49:44.247Z,100236.12
2022-09-12T22:54:48.062Z,100233.95
2022-09-12T22:59:51.335Z,100236.55
2022-09-12T23:04:55.328Z,100231.13
2022-09-12T23:09:58.488Z,100229.33
2022-09-12T23:15:01.699Z,100229.59
2022-09-12T23:20:06.386Z,100219.48
2022-09-12T23:25:11.088Z,100211.00
2022-09-12T23:30:25.765Z,100204.23
2022-09-12T23:35:29.211Z,100202.13
2022-09-12T23:40:32.690Z,100195.96
2022-09-12T23:45:35.986Z,100195.06
2022-09-12T23:50:39.726Z,100188.46
2022-09-12T23:55:43.876Z,100186.51
